createdAt,value
2023-02-17T00:02:23.552Z,24.80
2023-02-17T00:04:50.863Z,27.50
2023-02-17T00:07:18.146Z,25.30
2023-02-17T00:09:45.538Z,26.80
2023-02-17T00:12:12.778Z,26.30
2023-02-17T00:14:40.737Z,25.97
2023-02-17T00:17:08.120Z,23.83
2023-02-17T00:19:35.363Z,24.60
2023-02-17T00:22:02.949Z,27.43
2023-02-17T00:24:32.729Z,22.23
2023-02-17T00:27:00.468Z,25.97
2023-02-17T00:29:27.702Z,24.67
2023-02-17T00:31:55.137Z,22.53
2023-02-17T00:34:42.235Z,23.70
2023-02-17T00:37:09.556Z,21.80
2023-02-17T00:39:36.945Z,23.83
2023-02-17T00:42:04.510Z,20.60
2023-02-17T00:44:31.930Z,21.33
2023-02-17T00:46:59.194Z,22.83
2023-02-17T00:49:28.007Z,22.80
2023-02-17T00:51:55.523Z,20.60
2023-02-17T00:54:22.943Z,20.10
2023-02-17T00:56:50.694Z,20.73
2023-02-17T00:59:18.248Z,21.57
2023-02-17T01:01:45.865Z,20.53
2023-02-17T01:04:13.188Z,20.43
2023-02-17T01:06:40.812Z,20.80
2023-02-17T01:09:09.502Z,21.97
2023-02-17T01:11:37.097Z,21.13
2023-02-17T01:14:06.478Z,21.10
2023-02-17T01:16:35.818Z,21.13
2023-02-17T01:19:04.144Z,23.13
2023-02-17T01:21:32.121Z,23.80
2023-02-17T01:24:00.655Z,21.73
2023-02-17T01:26:30.203Z,22.80
2023-02-17T01:28:57.657Z,22.30
2023-02-17T01:31:27.138Z,23.33
2023-02-17T01:33:55.539Z,24.23
2023-02-17T01:36:22.811Z,22.00
2023-02-17T01:38:50.173Z,22.80
2023-02-17T01:41:20.291Z,22.60
2023-02-17T01:44:07.949Z,23.50
2023-02-17T01:46:37.871Z,23.37
2023-02-17T01:49:10.026Z,26.33
2023-02-17T01:51:39.435Z,27.83
2023-02-17T01:54:12.693Z,22.73
2023-02-17T01:56:43.876Z,23.27
2023-02-17T01:59:19.590Z,23.03
2023-02-17T02:01:50.608Z,25.43
2023-02-17T02:04:19.415Z,27.13
2023-02-17T02:06:46.826Z,25.47
2023-02-17T02:09:22.360Z,22.83
2023-02-17T02:11:52.834Z,27.97
2023-02-17T02:14:21.350Z,24.17
2023-02-17T02:16:52.053Z,25.53
2023-02-17T02:19:30.695Z,23.60
2023-02-17T02:22:25.522Z,24.97
2023-02-17T02:25:10.430Z,27.03
2023-02-17T02:27:43.793Z,29.07
2023-02-17T02:30:21.433Z,27.97
2023-02-17T02:32:58.670Z,28.40
2023-02-17T02:35:32.741Z,30.67
2023-02-17T02:38:15.480Z,33.27
2023-02-17T02:40:48.680Z,28.47
2023-02-17T02:43:16.820Z,30.37
2023-02-17T02:45:44.082Z,32.43
2023-02-17T02:48:11.324Z,28.40
2023-02-17T02:50:57.548Z,29.23
2023-02-17T02:53:31.812Z,32.13
2023-02-17T02:56:08.621Z,30.77
2023-02-17T02:58:36.675Z,27.00
2023-02-17T03:01:14.157Z,30.73
2023-02-17T03:04:00.638Z,24.63
2023-02-17T03:06:34.749Z,16.83
2023-02-17T03:09:05.537Z,22.13
2023-02-17T03:11:32.787Z,17.33
2023-02-17T03:14:03.238Z,21.37
2023-02-17T03:16:34.963Z,11.83
2023-02-17T03:19:02.339Z,16.90
2023-02-17T03:21:47.372Z,10.87
2023-02-17T03:24:14.692Z,13.63
2023-02-17T03:26:41.919Z,10.37
2023-02-17T03:29:09.401Z,9.77
2023-02-17T03:31:36.855Z,11.20
2023-02-17T03:34:04.562Z,9.50
2023-02-17T03:36:31.936Z,10.73
2023-02-17T03:38:59.170Z,10.03
2023-02-17T03:41:28.579Z,9.87
2023-02-17T03:43:55.900Z,11.03
2023-02-17T03:46:23.222Z,10.43
2023-02-17T03:48:51.008Z,8.83
2023-02-17T03:51:20.209Z,11.17
2023-02-17T03:53:47.939Z,11.03
2023-02-17T03:56:15.640Z,10.27
2023-02-17T03:58:43.612Z,9.27
2023-02-17T04:01:12.316Z,9.97
2023-02-17T04:03:39.973Z,7.43
2023-02-17T04:06:08.384Z,8.10
2023-02-17T04:08:35.924Z,9.90
2023-02-17T04:11:04.128Z,10.60
2023-02-17T04:13:33.184Z,9.97
2023-02-17T04:16:07.378Z,9.53
2023-02-17T04:18:36.069Z,9.60
2023-02-17T04:21:03.505Z,11.13
2023-02-17T04:23:30.756Z,11.37
2023-02-17T04:25:58.030Z,11.03
2023-02-17T04:28:26.378Z,11.17
2023-02-17T04:30:54.041Z,10.37
2023-02-17T04:33:21.286Z,11.97
2023-02-17T04:35:48.795Z,11.47
2023-02-17T04:38:16.371Z,9.47
2023-02-17T04:40:43.816Z,12.20
2023-02-17T04:43:11.065Z,13.13
2023-02-17T04:45:38.727Z,11.27
2023-02-17T04:48:06.419Z,11.13
2023-02-17T04:50:33.688Z,11.10
2023-02-17T04:53:01.232Z,12.63
2023-02-17T04:55:29.654Z,12.60
2023-02-17T04:57:57.838Z,16.23
2023-02-17T05:00:26.152Z,10.77
2023-02-17T05:02:53.551Z,11.20
2023-02-17T05:05:21.110Z,10.30
2023-02-17T05:07:48.459Z,9.83
2023-02-17T05:10:16.566Z,10.67
2023-02-17T05:12:44.176Z,10.37
2023-02-17T05:15:12.095Z,11.80
2023-02-17T05:17:39.357Z,10.27
2023-02-17T05:20:07.002Z,10.67
2023-02-17T05:22:34.257Z,11.37
2023-02-17T05:25:01.529Z,12.03
2023-02-17T05:27:28.752Z,10.37
2023-02-17T05:29:56.914Z,11.80
2023-02-17T05:32:24.562Z,10.00
2023-02-17T05:34:55.653Z,10.47
2023-02-17T05:37:24.066Z,10.00
2023-02-17T05:39:51.900Z,11.87
2023-02-17T05:42:19.176Z,11.37
2023-02-17T05:44:46.463Z,10.53
2023-02-17T05:47:13.833Z,9.67
2023-02-17T05:49:41.042Z,11.17
2023-02-17T05:52:08.576Z,10.23
2023-02-17T05:54:35.850Z,9.23
2023-02-17T05:57:03.111Z,10.93
2023-02-17T05:59:48.973Z,8.70
2023-02-17T06:02:16.182Z,9.37
2023-02-17T06:04:43.591Z,9.07
2023-02-17T06:07:11.008Z,9.03
2023-02-17T06:09:38.193Z,9.47
2023-02-17T06:12:05.544Z,9.60
2023-02-17T06:14:32.764Z,9.27
2023-02-17T06:17:18.322Z,9.03
2023-02-17T06:19:45.543Z,12.07
2023-02-17T06:22:12.815Z,12.23
2023-02-17T06:24:40.069Z,10.50
2023-02-17T06:27:07.326Z,8.47
2023-02-17T06:29:34.651Z,10.10
2023-02-17T06:32:02.251Z,12.70
2023-02-17T06:34:29.538Z,9.17
2023-02-17T06:36:56.786Z,8.57
2023-02-17T06:39:24.004Z,8.03
2023-02-17T06:41:51.375Z,7.87
2023-02-17T06:44:18.654Z,8.10
2023-02-17T06:46:46.868Z,7.53
2023-02-17T06:49:14.482Z,7.97
2023-02-17T06:51:41.938Z,10.37
2023-02-17T06:54:09.201Z,8.27
2023-02-17T06:56:36.502Z,9.23
2023-02-17T06:59:03.974Z,7.70
2023-02-17T07:01:31.244Z,8.73
2023-02-17T07:03:58.592Z,7.57
2023-02-17T07:06:26.115Z,10.63
2023-02-17T07:08:53.500Z,9.47
2023-02-17T07:11:21.138Z,8.43
2023-02-17T07:13:48.424Z,7.60
2023-02-17T07:16:16.066Z,7.03
2023-02-17T07:18:43.357Z,7.73
2023-02-17T07:21:10.851Z,6.97
2023-02-17T07:23:39.438Z,6.87
2023-02-17T07:26:09.074Z,8.87
2023-02-17T07:28:36.994Z,7.40
2023-02-17T07:31:11.570Z,8.27
2023-02-17T07:33:38.872Z,6.77
2023-02-17T07:36:07.240Z,6.90
2023-02-17T07:38:34.687Z,7.27
2023-02-17T07:41:09.741Z,7.67
2023-02-17T07:43:37.381Z,7.90
2023-02-17T07:46:05.724Z,10.33
2023-02-17T07:48:33.258Z,7.53
2023-02-17T07:51:06.912Z,7.73
2023-02-17T07:53:34.391Z,7.77
2023-02-17T07:56:09.122Z,7.83
2023-02-17T07:58:37.614Z,8.37
2023-02-17T08:01:08.120Z,6.50
2023-02-17T08:03:35.364Z,7.07
2023-02-17T08:06:02.893Z,6.57
2023-02-17T08:08:49.180Z,8.70
2023-02-17T08:11:35.992Z,9.00
2023-02-17T08:14:03.267Z,9.23
2023-02-17T08:16:30.492Z,9.03
2023-02-17T08:18:57.990Z,7.63
2023-02-17T08:21:26.490Z,8.07
2023-02-17T08:23:53.942Z,10.20
2023-02-17T08:26:21.433Z,8.40
2023-02-17T08:28:49.825Z,10.20
2023-02-17T08:31:18.536Z,8.20
2023-02-17T08:33:45.916Z,7.97
2023-02-17T08:36:13.439Z,9.67
2023-02-17T08:38:41.201Z,9.47
2023-02-17T08:41:19.396Z,6.70
2023-02-17T08:43:46.714Z,9.00
2023-02-17T08:46:14.447Z,8.97
2023-02-17T08:48:42.330Z,7.70
2023-02-17T08:51:12.464Z,11.47
2023-02-17T08:53:39.717Z,8.23
2023-02-17T08:56:07.523Z,8.17
2023-02-17T08:58:35.176Z,7.77
2023-02-17T09:01:02.809Z,7.67
2023-02-17T09:03:30.415Z,7.33
2023-02-17T09:05:58.535Z,7.67
2023-02-17T09:08:26.116Z,7.03
2023-02-17T09:10:53.369Z,6.63
2023-02-17T09:13:20.957Z,6.97
2023-02-17T09:15:49.445Z,7.80
2023-02-17T09:18:16.944Z,9.33
2023-02-17T09:20:44.297Z,7.30
2023-02-17T09:23:11.529Z,6.43
2023-02-17T09:25:38.728Z,6.20
2023-02-17T09:28:05.948Z,5.90
2023-02-17T09:30:33.582Z,4.70
2023-02-17T09:33:00.891Z,6.07
2023-02-17T09:35:28.226Z,5.30
2023-02-17T09:37:55.816Z,5.23
2023-02-17T09:40:25.033Z,5.53
2023-02-17T09:42:52.314Z,5.73
2023-02-17T09:45:27.058Z,4.77
2023-02-17T09:47:55.664Z,4.83
2023-02-17T09:50:25.551Z,4.47
2023-02-17T09:52:57.694Z,4.37
2023-02-17T09:55:33.096Z,4.43
2023-02-17T09:58:14.046Z,4.57
2023-02-17T10:01:02.333Z,4.33
2023-02-17T10:03:32.710Z,4.13
2023-02-17T10:06:12.273Z,4.33
2023-02-17T10:08:59.811Z,3.63
2023-02-17T10:11:37.139Z,4.13
2023-02-17T10:14:11.765Z,4.73
2023-02-17T10:16:42.640Z,4.03
2023-02-17T10:19:16.034Z,4.60
2023-02-17T10:21:45.120Z,3.93
2023-02-17T10:24:12.530Z,4.23
2023-02-17T10:26:39.689Z,3.60
2023-02-17T10:29:14.555Z,3.63
2023-02-17T10:31:49.662Z,4.50
2023-02-17T10:34:26.584Z,4.43
2023-02-17T10:36:54.505Z,3.97
2023-02-17T10:39:31.037Z,3.80
2023-02-17T10:41:58.471Z,3.70
2023-02-17T10:44:26.173Z,3.83
2023-02-17T10:46:54.639Z,4.23
2023-02-17T10:49:30.201Z,3.83
2023-02-17T10:52:10.781Z,3.80
2023-02-17T10:54:46.056Z,3.50
2023-02-17T10:57:14.064Z,3.77
2023-02-17T10:59:44.888Z,6.63
2023-02-17T11:02:23.297Z,4.43
2023-02-17T11:04:52.395Z,3.63
2023-02-17T11:07:22.706Z,4.03
2023-02-17T11:09:55.914Z,3.33
2023-02-17T11:12:26.169Z,3.70
2023-02-17T11:14:54.511Z,4.43
2023-02-17T11:17:29.034Z,4.00
2023-02-17T11:20:06.784Z,4.00
2023-02-17T11:22:40.877Z,3.80
2023-02-17T11:25:21.886Z,3.77
2023-02-17T11:27:53.282Z,4.80
2023-02-17T11:30:21.114Z,3.63
2023-02-17T11:32:48.778Z,3.63
2023-02-17T11:35:24.795Z,3.53
2023-02-17T11:37:52.038Z,3.17
2023-02-17T11:40:27.660Z,3.37
2023-02-17T11:43:01.825Z,3.93
2023-02-17T11:45:32.001Z,4.50
2023-02-17T11:48:02.309Z,5.50
2023-02-17T11:50:41.429Z,3.67
2023-02-17T11:53:17.750Z,3.70
2023-02-17T11:56:08.375Z,3.60
2023-02-17T11:58:35.869Z,3.63
2023-02-17T12:01:05.820Z,3.50
2023-02-17T12:03:36.898Z,3.13
2023-02-17T12:06:25.389Z,3.03
2023-02-17T12:08:55.779Z,4.60
2023-02-17T12:11:26.171Z,3.97
2023-02-17T12:14:05.196Z,3.50
2023-02-17T12:16:32.567Z,3.20
2023-02-17T12:19:05.489Z,2.60
2023-02-17T12:21:35.618Z,3.23
2023-02-17T12:24:05.834Z,2.63
2023-02-17T12:26:42.218Z,4.03
2023-02-17T12:29:12.576Z,3.80
2023-02-17T12:31:58.955Z,3.13
2023-02-17T12:34:29.249Z,2.43
2023-02-17T12:36:57.411Z,3.77
2023-02-17T12:39:32.636Z,2.87
2023-02-17T12:42:05.683Z,2.27
2023-02-17T12:44:39.043Z,3.83
2023-02-17T12:47:26.583Z,3.00
2023-02-17T12:49:56.809Z,3.03
2023-02-17T12:52:28.942Z,3.77
2023-02-17T12:55:03.750Z,2.73
2023-02-17T12:57:43.278Z,3.43
2023-02-17T13:00:20.032Z,2.87
2023-02-17T13:02:47.741Z,3.57
2023-02-17T13:05:27.432Z,3.00
2023-02-17T13:08:01.224Z,4.17
2023-02-17T13:10:28.488Z,2.77
2023-02-17T13:12:56.925Z,2.87
2023-02-17T13:15:29.721Z,2.87
2023-02-17T13:18:03.549Z,2.60
2023-02-17T13:20:45.506Z,2.77
2023-02-17T13:23:13.992Z,2.67
2023-02-17T13:25:41.243Z,2.47
2023-02-17T13:28:27.359Z,2.40
2023-02-17T13:30:56.575Z,3.90
2023-02-17T13:33:23.897Z,2.20
2023-02-17T13:35:51.352Z,3.40
2023-02-17T13:38:29.924Z,2.30
2023-02-17T13:41:01.827Z,2.53
2023-02-17T13:43:30.827Z,2.13
2023-02-17T13:46:02.501Z,2.17
2023-02-17T13:48:31.242Z,2.33
2023-02-17T13:51:10.115Z,2.23
2023-02-17T13:53:41.246Z,2.37
2023-02-17T13:56:27.378Z,2.20
2023-02-17T13:58:55.313Z,2.10
2023-02-17T14:01:27.368Z,2.20
2023-02-17T14:03:56.633Z,2.47
2023-02-17T14:06:26.617Z,2.10
2023-02-17T14:08:54.107Z,1.90
2023-02-17T14:11:22.715Z,2.43
2023-02-17T14:13:52.213Z,1.60
2023-02-17T14:16:35.878Z,2.23
2023-02-17T14:19:08.053Z,1.93
2023-02-17T14:21:36.697Z,2.80
2023-02-17T14:24:04.117Z,2.30
2023-02-17T14:26:45.381Z,1.70
2023-02-17T14:29:14.219Z,1.90
2023-02-17T14:31:41.542Z,1.50
2023-02-17T14:34:13.676Z,2.27
2023-02-17T14:36:41.218Z,2.00
2023-02-17T14:39:09.677Z,1.93
2023-02-17T14:41:37.070Z,2.00
2023-02-17T14:44:06.048Z,1.60
2023-02-17T14:46:34.095Z,1.73
2023-02-17T14:49:01.488Z,1.70
2023-02-17T14:51:34.331Z,3.07
2023-02-17T14:54:12.367Z,1.90
2023-02-17T14:56:42.284Z,1.73
2023-02-17T14:59:10.406Z,1.60
2023-02-17T15:01:37.756Z,1.70
2023-02-17T15:04:05.187Z,1.93
2023-02-17T15:06:51.351Z,1.93
2023-02-17T15:09:23.577Z,1.43
2023-02-17T15:11:51.681Z,1.83
2023-02-17T15:14:20.335Z,2.10
2023-02-17T15:16:48.429Z,1.80
2023-02-17T15:19:18.110Z,1.90
2023-02-17T15:21:48.071Z,2.03
2023-02-17T15:24:20.631Z,2.60
2023-02-17T15:26:48.250Z,2.73
2023-02-17T15:29:27.204Z,1.70
2023-02-17T15:31:55.812Z,2.17
2023-02-17T15:34:32.898Z,2.07
2023-02-17T15:37:01.001Z,1.90
2023-02-17T15:39:28.755Z,2.43
2023-02-17T15:41:56.998Z,2.37
2023-02-17T15:44:25.119Z,2.20
2023-02-17T15:46:53.722Z,2.97
2023-02-17T15:49:21.352Z,2.23
2023-02-17T15:51:48.582Z,2.00
2023-02-17T15:54:19.453Z,2.30
2023-02-17T15:56:51.272Z,2.10
2023-02-17T15:59:20.024Z,2.07
2023-02-17T16:01:47.253Z,2.63
2023-02-17T16:04:15.187Z,2.30
2023-02-17T16:06:42.738Z,2.10
2023-02-17T16:09:10.747Z,1.87
2023-02-17T16:11:41.813Z,2.73
2023-02-17T16:14:09.950Z,2.50
2023-02-17T16:16:37.522Z,3.87
2023-02-17T16:19:04.833Z,2.97
2023-02-17T16:21:32.147Z,2.63
2023-02-17T16:24:00.528Z,2.30
2023-02-17T16:26:34.382Z,3.07
2023-02-17T16:29:02.627Z,2.40
2023-02-17T16:31:32.522Z,2.83
2023-02-17T16:34:00.433Z,4.13
2023-02-17T16:36:30.677Z,3.67
2023-02-17T16:38:58.066Z,2.37
2023-02-17T16:41:25.307Z,2.10
2023-02-17T16:43:52.545Z,2.27
2023-02-17T16:46:27.305Z,2.13
2023-02-17T16:48:54.628Z,2.70
2023-02-17T16:51:22.181Z,2.63
2023-02-17T16:53:49.435Z,2.57
2023-02-17T16:56:18.542Z,1.90
2023-02-17T16:58:46.106Z,2.30
2023-02-17T17:01:13.947Z,3.53
2023-02-17T17:03:41.888Z,1.80
2023-02-17T17:06:29.661Z,2.20
2023-02-17T17:08:57.332Z,2.50
2023-02-17T17:11:29.201Z,2.70
2023-02-17T17:13:56.599Z,2.40
2023-02-17T17:16:29.832Z,2.33
2023-02-17T17:18:57.336Z,2.20
2023-02-17T17:21:24.615Z,2.20
2023-02-17T17:23:51.875Z,1.90
2023-02-17T17:26:36.457Z,2.00
2023-02-17T17:29:04.033Z,2.03
2023-02-17T17:31:31.451Z,1.93
2023-02-17T17:33:58.909Z,1.90
2023-02-17T17:36:28.259Z,2.20
2023-02-17T17:38:56.097Z,1.73
2023-02-17T17:41:24.666Z,2.33
2023-02-17T17:43:52.047Z,2.50
2023-02-17T17:46:21.350Z,2.77
2023-02-17T17:48:48.976Z,1.80
2023-02-17T17:51:18.277Z,2.30
2023-02-17T17:53:45.651Z,2.53
2023-02-17T17:56:17.681Z,2.33
2023-02-17T17:58:45.279Z,1.70
2023-02-17T18:01:12.887Z,2.23
2023-02-17T18:03:40.714Z,2.53
2023-02-17T18:06:09.295Z,1.90
2023-02-17T18:08:36.887Z,2.10
2023-02-17T18:11:04.459Z,2.90
2023-02-17T18:13:32.633Z,2.17
2023-02-17T18:15:59.879Z,2.30
2023-02-17T18:18:28.631Z,2.47
2023-02-17T18:20:55.912Z,2.00
2023-02-17T18:23:23.214Z,2.20
2023-02-17T18:25:50.438Z,2.30
2023-02-17T18:28:18.034Z,2.70
2023-02-17T18:30:45.417Z,3.37
2023-02-17T18:33:14.484Z,3.00
2023-02-17T18:35:44.067Z,2.70
2023-02-17T18:38:11.809Z,3.10
2023-02-17T18:40:39.990Z,2.70
2023-02-17T18:43:07.499Z,2.73
2023-02-17T18:45:35.074Z,2.90
2023-02-17T18:48:02.459Z,3.50
2023-02-17T18:50:33.115Z,3.63
2023-02-17T18:53:00.540Z,3.87
2023-02-17T18:55:28.026Z,3.70
2023-02-17T18:57:56.555Z,4.07
2023-02-17T19:00:24.954Z,3.47
2023-02-17T19:02:52.633Z,2.90
2023-02-17T19:05:19.965Z,2.83
2023-02-17T19:07:47.284Z,2.30
2023-02-17T19:10:15.034Z,2.10
2023-02-17T19:12:42.460Z,2.00
2023-02-17T19:15:09.930Z,1.70
2023-02-17T19:17:37.366Z,2.17
2023-02-17T19:20:04.892Z,2.30
2023-02-17T19:22:35.106Z,2.20
2023-02-17T19:25:02.863Z,2.53
2023-02-17T19:27:30.266Z,2.80
2023-02-17T19:29:57.651Z,2.67
2023-02-17T19:32:24.970Z,2.50
2023-02-17T19:34:52.447Z,2.70
2023-02-17T19:37:19.765Z,2.93
2023-02-17T19:39:47.072Z,3.00
2023-02-17T19:42:15.397Z,2.77
2023-02-17T19:44:42.667Z,2.63
2023-02-17T19:47:09.868Z,3.50
2023-02-17T19:49:37.138Z,2.90
2023-02-17T19:52:06.223Z,2.97
2023-02-17T19:54:33.661Z,2.43
2023-02-17T19:57:01.012Z,3.13
2023-02-17T19:59:28.766Z,3.43
2023-02-17T20:01:56.040Z,2.97
2023-02-17T20:04:23.328Z,3.80
2023-02-17T20:06:52.632Z,3.50
2023-02-17T20:09:22.094Z,3.70
2023-02-17T20:11:49.761Z,3.03
2023-02-17T20:14:17.052Z,4.10
2023-02-17T20:16:44.329Z,3.00
2023-02-17T20:19:11.838Z,3.10
2023-02-17T20:21:40.306Z,3.07
2023-02-17T20:24:07.615Z,4.37
2023-02-17T20:26:39.417Z,3.33
2023-02-17T20:29:07.184Z,3.53
2023-02-17T20:31:35.840Z,3.63
2023-02-17T20:34:07.049Z,3.43
2023-02-17T20:36:34.420Z,3.80
2023-02-17T20:41:47.332Z,4.50
2023-02-17T20:44:14.611Z,3.87
2023-02-17T20:46:45.311Z,3.30
2023-02-17T20:49:14.021Z,3.83
2023-02-17T20:51:41.438Z,3.27
2023-02-17T20:54:08.781Z,3.23
2023-02-17T20:56:37.928Z,3.60
2023-02-17T20:59:05.786Z,3.43
2023-02-17T21:01:33.150Z,3.30
2023-02-17T21:04:00.516Z,3.57
2023-02-17T21:06:28.969Z,3.27
2023-02-17T21:09:01.046Z,3.93
2023-02-17T21:11:28.627Z,3.80
2023-02-17T21:13:55.924Z,3.53
2023-02-17T21:16:25.763Z,4.53
2023-02-17T21:18:53.264Z,3.40
2023-02-17T21:21:21.056Z,3.53
2023-02-17T21:23:48.435Z,3.83
2023-02-17T21:26:34.899Z,3.80
2023-02-17T21:29:02.184Z,4.20
2023-02-17T21:31:29.566Z,4.97
2023-02-17T21:33:58.097Z,3.77
2023-02-17T21:36:26.963Z,3.50
2023-02-17T21:38:57.349Z,5.33
2023-02-17T21:41:26.455Z,3.83
2023-02-17T21:44:13.239Z,3.63
2023-02-17T21:46:43.113Z,3.83
2023-02-17T21:49:11.024Z,4.50
2023-02-17T21:51:38.614Z,5.67
2023-02-17T21:54:06.387Z,4.73
2023-02-17T21:56:33.743Z,4.27
2023-02-17T21:59:01.072Z,4.07
2023-02-17T22:01:28.709Z,4.33
2023-02-17T22:03:57.568Z,3.93
2023-02-17T22:06:26.880Z,4.33
2023-02-17T22:08:54.376Z,3.77
2023-02-17T22:11:23.858Z,3.70
2023-02-17T22:13:54.275Z,3.53
2023-02-17T22:16:21.937Z,3.70
2023-02-17T22:18:49.193Z,5.63
2023-02-17T22:21:17.836Z,4.43
2023-02-17T22:23:45.517Z,4.10
2023-02-17T22:26:17.397Z,3.00
2023-02-17T22:28:45.120Z,2.90
2023-02-17T22:31:13.722Z,5.03
2023-02-17T22:33:41.106Z,2.97
2023-02-17T22:36:10.435Z,4.27
2023-02-17T22:38:38.277Z,3.73
2023-02-17T22:41:06.943Z,2.47
2023-02-17T22:43:37.849Z,3.17
2023-02-17T22:46:06.530Z,5.67
2023-02-17T22:48:34.789Z,4.87
2023-02-17T22:51:06.132Z,2.87
2023-02-17T22:53:33.670Z,4.23
2023-02-17T22:56:00.938Z,5.03
2023-02-17T22:58:28.677Z,4.80
2023-02-17T23:01:06.378Z,3.43
2023-02-17T23:03:34.143Z,4.67
2023-02-17T23:06:06.717Z,4.73
2023-02-17T23:08:35.353Z,5.10
2023-02-17T23:11:06.499Z,6.90
2023-02-17T23:13:34.269Z,3.23
2023-02-17T23:16:01.659Z,5.33
2023-02-17T23:18:30.389Z,3.33
2023-02-17T23:20:58.309Z,5.10
2023-02-17T23:23:26.112Z,5.17
2023-02-17T23:25:55.516Z,5.00
2023-02-17T23:28:24.622Z,2.70
2023-02-17T23:30:52.064Z,5.10
2023-02-17T23:33:20.640Z,3.37
2023-02-17T23:35:48.145Z,4.10
2023-02-17T23:38:16.840Z,4.43
2023-02-17T23:40:44.442Z,3.87
2023-02-17T23:43:30.166Z,2.10
2023-02-17T23:45:58.129Z,4.63
2023-02-17T23:48:25.374Z,2.17
2023-02-17T23:50:57.008Z,3.23
2023-02-17T23:53:24.293Z,2.87
2023-02-17T23:56:00.864Z,3.87
2023-02-17T23:58:28.121Z,3.53
